createdAt,value
2023-08-29T00:00:20.856Z,12.60
2023-08-29T00:02:54.521Z,12.50
2023-08-29T00:05:28.257Z,12.60
2023-08-29T00:08:00.437Z,12.50
2023-08-29T00:10:32.657Z,12.50
2023-08-29T00:13:04.922Z,12.50
2023-08-29T00:15:37.145Z,12.50
2023-08-29T00:18:09.595Z,12.50
2023-08-29T00:20:42.354Z,12.50
2023-08-29T00:23:14.500Z,12.50
2023-08-29T00:25:47.742Z,12.50
2023-08-29T00:28:19.837Z,12.50
2023-08-29T00:30:54.532Z,12.50
2023-08-29T00:33:27.207Z,12.30
2023-08-29T00:35:59.341Z,12.40
2023-08-29T00:38:32.289Z,12.40
2023-08-29T00:41:05.115Z,12.40
2023-08-29T00:43:37.185Z,12.40
2023-08-29T00:46:09.775Z,12.40
2023-08-29T00:48:45.187Z,12.40
2023-08-29T00:51:18.113Z,12.40
2023-08-29T00:53:50.384Z,12.50
2023-08-29T00:56:22.711Z,12.50
2023-08-29T00:58:55.033Z,12.40
2023-08-29T01:01:27.342Z,12.40
2023-08-29T01:04:01.549Z,12.30
2023-08-29T01:06:34.232Z,12.40
2023-08-29T01:09:08.082Z,12.30
2023-08-29T01:11:53.735Z,12.30
2023-08-29T01:14:38.161Z,12.20
2023-08-29T01:17:19.533Z,12.20
2023-08-29T01:19:53.140Z,12.10
2023-08-29T01:22:31.372Z,12.10
2023-08-29T01:25:22.357Z,12.20
2023-08-29T01:27:55.217Z,12.20
2023-08-29T01:30:27.508Z,12.20
2023-08-29T01:33:00.144Z,12.20
2023-08-29T01:35:32.890Z,12.20
2023-08-29T01:38:05.203Z,12.20
2023-08-29T01:40:38.443Z,12.20
2023-08-29T01:43:10.601Z,12.10
2023-08-29T01:45:42.815Z,12.10
2023-08-29T01:48:15.246Z,12.00
2023-08-29T01:50:49.121Z,12.00
2023-08-29T01:53:21.226Z,12.10
2023-08-29T01:55:53.618Z,11.90
2023-08-29T01:58:25.847Z,11.80
2023-08-29T02:01:04.080Z,11.80
2023-08-29T02:03:42.484Z,11.70
2023-08-29T02:06:15.324Z,11.70
2023-08-29T02:08:47.508Z,11.70
2023-08-29T02:11:19.637Z,11.80
2023-08-29T02:13:51.719Z,11.70
2023-08-29T02:16:26.028Z,11.60
2023-08-29T02:18:58.328Z,11.70
2023-08-29T02:21:31.055Z,11.70
2023-08-29T02:24:04.234Z,11.70
2023-08-29T02:26:36.880Z,11.80
2023-08-29T02:29:09.034Z,11.80
2023-08-29T02:31:41.278Z,11.60
2023-08-29T02:34:13.431Z,11.60
2023-08-29T02:36:49.197Z,11.50
2023-08-29T02:39:21.672Z,11.50
2023-08-29T02:41:53.820Z,11.40
2023-08-29T02:44:25.904Z,11.40
2023-08-29T02:46:57.976Z,11.50
2023-08-29T02:49:30.114Z,11.50
2023-08-29T02:52:02.324Z,11.50
2023-08-29T02:54:34.422Z,11.40
2023-08-29T02:57:06.566Z,11.50
2023-08-29T02:59:38.614Z,11.50
2023-08-29T03:02:11.141Z,11.60
2023-08-29T03:04:43.609Z,11.60
2023-08-29T03:07:15.712Z,11.60
2023-08-29T03:09:47.796Z,11.50
2023-08-29T03:12:20.488Z,11.50
2023-08-29T03:14:55.829Z,11.40
2023-08-29T03:17:28.604Z,11.50
2023-08-29T03:20:01.945Z,11.40
2023-08-29T03:22:34.399Z,11.50
2023-08-29T03:25:06.675Z,11.50
2023-08-29T03:27:38.967Z,11.50
2023-08-29T03:30:11.392Z,11.50
2023-08-29T03:32:43.566Z,11.50
2023-08-29T03:35:15.761Z,11.40
2023-08-29T03:37:48.331Z,11.30
2023-08-29T03:40:20.437Z,11.40
2023-08-29T03:42:52.470Z,11.40
2023-08-29T03:45:24.519Z,11.40
2023-08-29T03:47:57.335Z,11.40
2023-08-29T03:50:30.047Z,11.40
2023-08-29T03:53:02.219Z,11.40
2023-08-29T03:55:34.264Z,11.30
2023-08-29T03:58:08.210Z,11.40
2023-08-29T04:00:42.565Z,11.40
2023-08-29T04:03:15.449Z,11.40
2023-08-29T04:05:47.901Z,11.50
2023-08-29T04:08:20.027Z,11.50
2023-08-29T04:10:52.102Z,11.40
2023-08-29T04:13:24.152Z,11.50
2023-08-29T04:15:56.902Z,11.40
2023-08-29T04:18:29.009Z,11.30
2023-08-29T04:21:01.307Z,11.30
2023-08-29T04:23:33.364Z,11.20
2023-08-29T04:26:05.504Z,11.30
2023-08-29T04:28:37.567Z,11.20
2023-08-29T04:31:10.958Z,11.30
2023-08-29T04:33:43.965Z,11.20
2023-08-29T04:36:18.166Z,11.20
2023-08-29T04:38:50.510Z,11.30
2023-08-29T04:41:22.596Z,11.40
2023-08-29T04:43:54.698Z,11.30
2023-08-29T04:46:26.965Z,11.20
2023-08-29T04:48:59.045Z,11.30
2023-08-29T04:51:32.900Z,11.30
2023-08-29T04:54:05.035Z,11.30
2023-08-29T04:56:38.416Z,11.40
2023-08-29T04:59:10.477Z,11.40
2023-08-29T05:01:42.601Z,11.40
2023-08-29T05:04:15.140Z,11.40
2023-08-29T05:06:47.329Z,11.40
2023-08-29T05:09:20.671Z,11.40
2023-08-29T05:11:52.950Z,11.40
2023-08-29T05:14:25.057Z,11.30
2023-08-29T05:16:57.968Z,11.50
2023-08-29T05:19:30.072Z,11.60
2023-08-29T05:22:02.893Z,11.60
2023-08-29T05:24:35.309Z,11.60
2023-08-29T05:27:07.388Z,11.60
2023-08-29T05:29:39.690Z,11.60
2023-08-29T05:32:11.790Z,11.60
2023-08-29T05:34:44.320Z,11.50
2023-08-29T05:37:16.627Z,11.60
2023-08-29T05:39:48.845Z,11.60
2023-08-29T05:42:21.012Z,11.60
2023-08-29T05:44:53.109Z,11.70
2023-08-29T05:47:25.205Z,11.60
2023-08-29T05:49:57.751Z,11.70
2023-08-29T05:52:29.853Z,11.70
2023-08-29T05:55:01.937Z,11.80
2023-08-29T05:57:34.006Z,11.80
2023-08-29T06:00:08.422Z,11.80
2023-08-29T06:02:46.522Z,11.80
2023-08-29T06:05:18.877Z,11.80
2023-08-29T06:07:53.188Z,11.70
2023-08-29T06:10:27.015Z,11.60
2023-08-29T06:12:59.115Z,11.80
2023-08-29T06:15:31.196Z,11.70
2023-08-29T06:18:03.294Z,11.70
2023-08-29T06:20:35.535Z,11.70
2023-08-29T06:23:07.676Z,11.60
2023-08-29T06:25:39.936Z,11.70
2023-08-29T06:28:12.515Z,11.70
2023-08-29T06:30:45.652Z,11.80
2023-08-29T06:33:17.782Z,11.80
2023-08-29T06:35:49.872Z,11.80
2023-08-29T06:38:22.553Z,11.90
2023-08-29T06:40:55.571Z,11.90
2023-08-29T06:43:28.184Z,11.90
2023-08-29T06:46:00.420Z,11.80
2023-08-29T06:48:32.680Z,11.90
2023-08-29T06:51:04.862Z,11.80
2023-08-29T06:53:37.095Z,11.60
2023-08-29T06:56:09.140Z,11.70
2023-08-29T06:58:41.279Z,11.70
2023-08-29T07:01:13.544Z,11.70
2023-08-29T07:03:45.769Z,11.70
2023-08-29T07:06:17.908Z,11.70
2023-08-29T07:08:49.978Z,11.80
2023-08-29T07:11:22.042Z,11.80
2023-08-29T07:13:54.123Z,11.90
2023-08-29T07:16:26.201Z,11.90
2023-08-29T07:18:58.341Z,12.00
2023-08-29T07:21:30.444Z,12.00
2023-08-29T07:24:02.679Z,12.00
2023-08-29T07:26:34.767Z,11.90
2023-08-29T07:29:06.822Z,12.00
2023-08-29T07:31:39.008Z,12.00
2023-08-29T07:34:13.036Z,12.10
2023-08-29T07:36:45.110Z,12.10
2023-08-29T07:39:20.309Z,12.20
2023-08-29T07:41:52.538Z,12.20
2023-08-29T07:44:25.181Z,12.20
2023-08-29T07:47:12.572Z,12.20
2023-08-29T07:49:46.777Z,12.20
2023-08-29T07:52:19.373Z,12.20
2023-08-29T07:54:51.873Z,12.20
2023-08-29T07:57:23.998Z,12.30
2023-08-29T07:59:56.072Z,12.20
2023-08-29T08:02:28.551Z,12.20
2023-08-29T08:05:00.642Z,12.30
2023-08-29T08:07:32.758Z,12.30
2023-08-29T08:10:09.291Z,12.30
2023-08-29T08:12:41.781Z,12.30
2023-08-29T08:15:14.729Z,12.40
2023-08-29T08:17:46.892Z,12.50
2023-08-29T08:20:19.381Z,12.60
2023-08-29T08:22:51.493Z,12.70
2023-08-29T08:25:23.695Z,12.80
2023-08-29T08:27:56.935Z,12.90
2023-08-29T08:30:30.374Z,13.00
2023-08-29T08:33:02.496Z,12.90
2023-08-29T08:35:38.522Z,12.90
2023-08-29T08:38:13.643Z,13.00
2023-08-29T08:40:45.726Z,13.10
2023-08-29T08:43:18.232Z,13.10
2023-08-29T08:45:50.525Z,13.20
2023-08-29T08:48:22.988Z,13.30
2023-08-29T08:50:55.910Z,13.20
2023-08-29T08:53:28.897Z,13.20
2023-08-29T08:56:01.111Z,13.20
2023-08-29T08:58:33.221Z,13.10
2023-08-29T09:01:05.632Z,13.10
2023-08-29T09:03:40.099Z,13.20
2023-08-29T09:06:15.111Z,13.10
2023-08-29T09:08:47.247Z,13.20
2023-08-29T09:11:19.694Z,13.30
2023-08-29T09:13:51.820Z,13.40
2023-08-29T09:16:24.968Z,13.30
2023-08-29T09:18:57.898Z,13.50
2023-08-29T09:21:30.548Z,13.60
2023-08-29T09:24:05.681Z,13.50
2023-08-29T09:26:37.741Z,13.50
2023-08-29T09:29:16.999Z,13.60
2023-08-29T09:31:49.556Z,13.60
2023-08-29T09:34:25.790Z,13.50
2023-08-29T09:36:58.395Z,13.50
2023-08-29T09:39:30.769Z,13.30
2023-08-29T09:42:10.295Z,13.30
2023-08-29T09:44:42.411Z,13.30
2023-08-29T09:47:22.381Z,13.20
2023-08-29T09:49:54.510Z,13.10
2023-08-29T09:52:26.877Z,13.20
2023-08-29T09:55:00.723Z,13.10
2023-08-29T09:57:34.985Z,13.20
2023-08-29T10:00:10.414Z,13.10
2023-08-29T10:02:42.999Z,13.00
2023-08-29T10:05:17.246Z,13.10
2023-08-29T10:07:51.779Z,13.20
2023-08-29T10:10:25.190Z,13.20
2023-08-29T10:12:58.362Z,13.40
2023-08-29T10:15:31.202Z,13.40
2023-08-29T10:18:03.360Z,13.40
2023-08-29T10:20:36.598Z,13.30
2023-08-29T10:23:09.054Z,13.30
2023-08-29T10:25:42.325Z,13.50
2023-08-29T10:28:15.875Z,13.50
2023-08-29T10:30:50.556Z,13.60
2023-08-29T10:33:24.033Z,13.50
2023-08-29T10:35:56.180Z,13.50
2023-08-29T10:38:29.959Z,13.60
2023-08-29T10:41:07.887Z,13.50
2023-08-29T10:43:40.176Z,13.50
2023-08-29T10:46:12.347Z,13.50
2023-08-29T10:48:47.676Z,13.50
2023-08-29T10:51:20.949Z,13.50
2023-08-29T10:53:53.237Z,13.50
2023-08-29T10:56:28.945Z,13.50
2023-08-29T10:59:01.308Z,13.60
2023-08-29T11:01:34.876Z,13.60
2023-08-29T11:04:14.990Z,13.70
2023-08-29T11:06:58.161Z,13.70
2023-08-29T11:09:30.463Z,13.70
2023-08-29T11:12:10.185Z,13.80
2023-08-29T11:14:52.706Z,13.90
2023-08-29T11:17:26.789Z,13.90
2023-08-29T11:20:00.161Z,14.00
2023-08-29T11:22:32.740Z,13.90
2023-08-29T11:25:05.619Z,13.80
2023-08-29T11:27:39.037Z,13.90
2023-08-29T11:30:24.891Z,13.90
2023-08-29T11:33:00.963Z,13.90
2023-08-29T11:35:33.558Z,13.90
2023-08-29T11:38:08.766Z,14.00
2023-08-29T11:40:45.902Z,14.10
2023-08-29T11:43:48.405Z,14.00
2023-08-29T11:46:32.468Z,14.00
2023-08-29T11:49:17.692Z,13.90
2023-08-29T11:51:50.085Z,13.90
2023-08-29T11:54:42.574Z,13.90
2023-08-29T11:57:15.457Z,13.90
2023-08-29T11:59:48.183Z,13.80
2023-08-29T12:02:22.507Z,13.70
2023-08-29T12:04:57.033Z,13.80
2023-08-29T12:07:33.000Z,13.80
2023-08-29T12:10:09.697Z,13.80
2023-08-29T12:12:41.836Z,13.90
2023-08-29T12:15:19.417Z,13.90
2023-08-29T12:17:56.087Z,14.10
2023-08-29T12:20:29.143Z,14.20
2023-08-29T12:23:01.384Z,14.20
2023-08-29T12:25:33.929Z,14.20
2023-08-29T12:28:06.244Z,14.30
2023-08-29T12:30:39.056Z,14.40
2023-08-29T12:33:11.285Z,14.40
2023-08-29T12:35:43.718Z,14.20
2023-08-29T12:38:15.956Z,14.10
2023-08-29T12:40:48.573Z,14.00
2023-08-29T12:43:20.960Z,14.10
2023-08-29T12:45:59.916Z,14.10
2023-08-29T12:48:32.779Z,14.20
2023-08-29T12:51:04.842Z,14.10
2023-08-29T12:53:37.242Z,14.20
2023-08-29T12:56:11.920Z,14.20
2023-08-29T12:58:44.511Z,14.20
2023-08-29T13:01:19.039Z,14.10
2023-08-29T13:03:51.382Z,14.00
2023-08-29T13:06:25.954Z,14.00
2023-08-29T13:08:59.880Z,14.00
2023-08-29T13:11:31.982Z,14.10
2023-08-29T13:14:04.705Z,14.00
2023-08-29T13:16:36.973Z,13.90
2023-08-29T13:19:09.169Z,13.80
2023-08-29T13:21:41.232Z,13.80
2023-08-29T13:24:13.320Z,13.60
2023-08-29T13:26:45.673Z,13.70
2023-08-29T13:29:17.774Z,13.80
2023-08-29T13:31:51.409Z,13.70
2023-08-29T13:34:23.566Z,13.80
2023-08-29T13:36:55.653Z,13.90
2023-08-29T13:39:28.407Z,13.90
2023-08-29T13:42:00.560Z,13.90
2023-08-29T13:44:32.710Z,13.90
2023-08-29T13:47:04.908Z,14.00
2023-08-29T13:49:36.966Z,14.00
2023-08-29T13:52:09.680Z,14.00
2023-08-29T13:54:41.922Z,13.90
2023-08-29T13:57:14.597Z,13.90
2023-08-29T13:59:46.649Z,13.90
2023-08-29T14:02:18.946Z,13.80
2023-08-29T14:04:51.010Z,13.80
2023-08-29T14:07:23.185Z,13.90
2023-08-29T14:09:55.268Z,13.90
2023-08-29T14:12:27.365Z,13.80
2023-08-29T14:15:00.263Z,13.90
2023-08-29T14:17:32.355Z,13.90
2023-08-29T14:20:06.584Z,13.90
2023-08-29T14:22:38.710Z,13.80
2023-08-29T14:25:10.852Z,13.90
2023-08-29T14:27:42.976Z,13.80
2023-08-29T14:30:15.106Z,13.80
2023-08-29T14:32:47.366Z,13.90
2023-08-29T14:35:21.416Z,13.80
2023-08-29T14:37:53.545Z,13.90
2023-08-29T14:40:26.040Z,13.80
2023-08-29T14:42:58.131Z,14.00
2023-08-29T14:45:30.863Z,14.00
2023-08-29T14:48:02.972Z,14.10
2023-08-29T14:50:35.205Z,14.00
2023-08-29T14:53:07.270Z,14.10
2023-08-29T14:55:39.374Z,14.00
2023-08-29T14:58:11.532Z,13.80
2023-08-29T15:00:44.526Z,13.70
2023-08-29T15:03:16.754Z,13.60
2023-08-29T15:05:54.796Z,13.60
2023-08-29T15:08:27.095Z,13.50
2023-08-29T15:10:59.189Z,13.60
2023-08-29T15:13:31.232Z,13.60
2023-08-29T15:16:06.415Z,13.80
2023-08-29T15:18:38.553Z,13.80
2023-08-29T15:21:10.639Z,13.80
2023-08-29T15:23:42.808Z,13.90
2023-08-29T15:26:14.886Z,13.90
2023-08-29T15:28:47.013Z,13.70
2023-08-29T15:31:19.138Z,13.80
2023-08-29T15:33:51.331Z,13.90
2023-08-29T15:36:24.675Z,13.90
2023-08-29T15:38:56.845Z,13.80
2023-08-29T15:41:28.939Z,13.70
2023-08-29T15:44:01.040Z,13.70
2023-08-29T15:46:33.116Z,13.50
2023-08-29T15:49:05.271Z,13.50
2023-08-29T15:51:38.033Z,13.60
2023-08-29T15:54:10.191Z,13.50
2023-08-29T15:56:42.388Z,13.50
2023-08-29T15:59:14.801Z,13.50
2023-08-29T16:01:46.905Z,13.50
2023-08-29T16:04:19.001Z,13.40
2023-08-29T16:06:51.929Z,13.50
2023-08-29T16:09:24.359Z,13.60
2023-08-29T16:11:56.434Z,13.60
2023-08-29T16:14:30.126Z,13.60
2023-08-29T16:17:05.148Z,13.60
2023-08-29T16:19:37.326Z,13.70
2023-08-29T16:22:09.973Z,13.60
2023-08-29T16:24:42.089Z,13.50
2023-08-29T16:27:16.856Z,13.50
2023-08-29T16:29:49.164Z,13.50
2023-08-29T16:32:21.265Z,13.50
2023-08-29T16:34:54.814Z,13.50
2023-08-29T16:37:26.883Z,13.50
2023-08-29T16:39:59.016Z,13.50
2023-08-29T16:42:34.040Z,13.40
2023-08-29T16:45:07.568Z,13.40
2023-08-29T16:47:41.078Z,13.50
2023-08-29T16:50:13.228Z,13.40
2023-08-29T16:52:45.276Z,13.50
2023-08-29T16:55:19.875Z,13.50
2023-08-29T16:57:53.377Z,13.40
2023-08-29T17:00:25.602Z,13.50
2023-08-29T17:02:59.289Z,13.50
2023-08-29T17:05:34.073Z,13.60
2023-08-29T17:08:07.506Z,13.40
2023-08-29T17:10:40.184Z,13.40
2023-08-29T17:13:12.333Z,13.30
2023-08-29T17:15:44.782Z,13.20
2023-08-29T17:18:17.163Z,13.10
2023-08-29T17:20:49.292Z,13.20
2023-08-29T17:23:21.347Z,13.30
2023-08-29T17:25:55.854Z,13.20
2023-08-29T17:28:27.925Z,13.20
2023-08-29T17:31:00.067Z,13.20
2023-08-29T17:33:32.771Z,13.20
2023-08-29T17:36:05.638Z,13.20
2023-08-29T17:38:37.831Z,13.20
2023-08-29T17:41:11.563Z,13.20
2023-08-29T17:43:43.627Z,13.10
2023-08-29T17:46:15.725Z,13.20
2023-08-29T17:48:48.020Z,13.10
2023-08-29T17:51:20.648Z,13.10
2023-08-29T17:53:53.257Z,13.00
2023-08-29T17:56:25.498Z,13.10
2023-08-29T17:58:57.669Z,13.10
2023-08-29T18:01:29.960Z,13.10
2023-08-29T18:04:02.165Z,13.10
2023-08-29T18:06:34.276Z,13.00
2023-08-29T18:09:06.421Z,13.10
2023-08-29T18:11:38.520Z,13.00
2023-08-29T18:14:11.275Z,13.00
2023-08-29T18:16:43.329Z,13.00
2023-08-29T18:19:16.573Z,13.00
2023-08-29T18:21:48.676Z,13.00
2023-08-29T18:24:20.926Z,13.10
2023-08-29T18:26:52.962Z,13.10
2023-08-29T18:29:25.434Z,13.00
2023-08-29T18:31:57.562Z,13.00
2023-08-29T18:34:29.983Z,13.00
2023-08-29T18:37:02.403Z,13.00
2023-08-29T18:39:34.570Z,12.90
2023-08-29T18:42:07.023Z,12.90
2023-08-29T18:44:39.183Z,12.90
2023-08-29T18:47:11.744Z,13.00
2023-08-29T18:49:44.251Z,13.00
2023-08-29T18:52:17.405Z,13.00
2023-08-29T18:54:49.923Z,13.00
2023-08-29T18:57:22.329Z,13.00
2023-08-29T18:59:54.889Z,13.00
2023-08-29T19:02:27.008Z,13.00
2023-08-29T19:05:00.906Z,13.10
2023-08-29T19:07:33.156Z,13.00
2023-08-29T19:10:06.239Z,13.00
2023-08-29T19:12:38.934Z,13.00
2023-08-29T19:15:11.100Z,13.00
2023-08-29T19:17:43.816Z,13.00
2023-08-29T19:20:16.057Z,13.00
2023-08-29T19:22:49.474Z,13.00
2023-08-29T19:25:21.615Z,12.90
2023-08-29T19:27:57.346Z,12.90
2023-08-29T19:30:29.539Z,13.00
2023-08-29T19:33:05.028Z,12.90
2023-08-29T19:35:39.283Z,13.00
2023-08-29T19:38:12.454Z,13.00
2023-08-29T19:40:44.618Z,13.00
2023-08-29T19:43:16.919Z,13.00
2023-08-29T19:45:49.089Z,12.90
2023-08-29T19:48:22.314Z,12.90
2023-08-29T19:50:54.484Z,12.90
2023-08-29T19:53:26.652Z,12.90
2023-08-29T19:55:58.857Z,12.90
2023-08-29T19:58:31.064Z,12.90
2023-08-29T20:01:07.008Z,12.90
2023-08-29T20:03:40.043Z,12.90
2023-08-29T20:06:12.784Z,12.90
2023-08-29T20:08:44.917Z,12.90
2023-08-29T20:11:17.260Z,12.90
2023-08-29T20:13:50.545Z,12.90
2023-08-29T20:16:22.697Z,12.80
2023-08-29T20:18:56.292Z,12.90
2023-08-29T20:21:28.660Z,12.90
2023-08-29T20:24:02.955Z,12.90
2023-08-29T20:26:35.962Z,12.90
2023-08-29T20:29:09.802Z,12.90
2023-08-29T20:31:41.921Z,12.80
2023-08-29T20:34:14.122Z,12.90
2023-08-29T20:36:49.719Z,12.90
2023-08-29T20:39:23.522Z,12.90
2023-08-29T20:41:55.744Z,12.80
2023-08-29T20:44:27.923Z,12.90
2023-08-29T20:47:00.098Z,12.90
2023-08-29T20:49:32.262Z,13.00
2023-08-29T20:52:11.626Z,13.00
2023-08-29T20:54:44.966Z,13.00
2023-08-29T20:57:17.329Z,12.90
2023-08-29T20:59:49.509Z,12.90
2023-08-29T21:02:21.769Z,12.90
2023-08-29T21:04:57.346Z,12.90
2023-08-29T21:07:29.524Z,12.90
2023-08-29T21:10:01.708Z,12.90
2023-08-29T21:12:34.174Z,12.80
2023-08-29T21:15:09.166Z,12.90
2023-08-29T21:17:44.982Z,12.90
2023-08-29T21:20:17.315Z,12.90
2023-08-29T21:22:49.808Z,12.80
2023-08-29T21:25:21.981Z,12.90
2023-08-29T21:27:55.510Z,12.90
2023-08-29T21:30:27.799Z,12.80
2023-08-29T21:33:00.069Z,12.90
2023-08-29T21:35:32.766Z,12.90
2023-08-29T21:38:04.909Z,12.90
2023-08-29T21:40:40.912Z,12.90
2023-08-29T21:43:15.198Z,12.90
2023-08-29T21:45:54.329Z,12.90
2023-08-29T21:48:27.426Z,12.90
2023-08-29T21:50:59.807Z,12.90
2023-08-29T21:53:32.007Z,13.00
2023-08-29T21:56:08.749Z,13.00
2023-08-29T21:58:40.942Z,13.00
2023-08-29T22:01:13.125Z,13.00
2023-08-29T22:03:45.598Z,13.00
2023-08-29T22:06:18.192Z,13.00
2023-08-29T22:08:50.293Z,13.10
2023-08-29T22:11:22.866Z,13.10
2023-08-29T22:13:54.923Z,13.10
2023-08-29T22:16:27.109Z,13.10
2023-08-29T22:18:59.207Z,13.10
2023-08-29T22:21:31.285Z,13.00
2023-08-29T22:24:03.329Z,13.00
2023-08-29T22:26:35.412Z,13.00
2023-08-29T22:29:07.662Z,13.00
2023-08-29T22:31:39.747Z,13.00
2023-08-29T22:34:11.881Z,13.00
2023-08-29T22:36:43.916Z,13.00
2023-08-29T22:39:16.596Z,13.00
2023-08-29T22:41:48.708Z,13.00
2023-08-29T22:44:20.934Z,13.00
2023-08-29T22:46:53.654Z,13.00
2023-08-29T22:49:25.840Z,13.00
2023-08-29T22:51:58.994Z,12.90
2023-08-29T22:54:31.963Z,12.90
2023-08-29T22:57:04.191Z,12.90
2023-08-29T22:59:36.329Z,12.90
2023-08-29T23:02:08.696Z,12.90
2023-08-29T23:04:41.173Z,12.90
2023-08-29T23:07:13.240Z,12.90
2023-08-29T23:09:45.363Z,12.90
2023-08-29T23:12:17.462Z,12.90
2023-08-29T23:14:49.564Z,13.00
2023-08-29T23:17:21.662Z,12.90
2023-08-29T23:19:53.981Z,12.90
2023-08-29T23:22:26.078Z,12.90
2023-08-29T23:24:58.812Z,12.90
2023-08-29T23:27:30.949Z,12.80
2023-08-29T23:30:03.616Z,12.90
2023-08-29T23:32:35.822Z,12.90
2023-08-29T23:35:08.097Z,12.90
2023-08-29T23:37:40.726Z,12.80
2023-08-29T23:40:13.820Z,12.80
2023-08-29T23:42:46.857Z,12.80
2023-08-29T23:45:18.967Z,12.70
2023-08-29T23:47:51.080Z,12.80
2023-08-29T23:50:23.179Z,12.70
2023-08-29T23:52:55.567Z,12.70
2023-08-29T23:55:27.685Z,12.60
2023-08-29T23:57:59.752Z,12.60
